createdAt,value
2024-04-08T14:03:46.190Z,28.58
2024-04-08T14:04:08.087Z,28.57
2024-04-08T14:04:30.048Z,28.58
2024-04-08T14:04:51.862Z,28.60
2024-04-08T14:05:13.649Z,28.61
2024-04-08T14:05:35.512Z,28.57
2024-04-08T14:05:57.834Z,28.57
2024-04-08T14:06:19.786Z,28.58
2024-04-08T14:06:41.719Z,28.57
2024-04-08T14:07:08.210Z,28.56
2024-04-08T14:07:30.017Z,28.55
2024-04-08T14:07:51.775Z,28.53
2024-04-08T14:08:13.519Z,28.53
2024-04-08T14:08:35.714Z,28.53
2024-04-08T14:08:57.642Z,28.48
2024-04-08T14:09:19.555Z,28.43
2024-04-08T14:09:41.376Z,28.35
2024-04-08T14:10:03.380Z,28.30
2024-04-08T14:10:25.139Z,28.25
2024-04-08T14:10:49.668Z,28.27
2024-04-08T14:11:11.513Z,28.27
2024-04-08T14:11:33.281Z,28.29
2024-04-08T14:11:55.102Z,28.28
2024-04-08T14:12:16.923Z,28.28
2024-04-08T14:12:38.726Z,28.30
2024-04-08T14:13:00.753Z,28.29
2024-04-08T14:13:22.509Z,28.30
2024-04-08T14:13:46.889Z,28.29
2024-04-08T14:14:08.708Z,28.26
2024-04-08T14:14:30.462Z,28.26
2024-04-08T14:14:52.642Z,28.24
2024-04-08T14:15:15.534Z,28.27
2024-04-08T14:15:37.595Z,28.30
2024-04-08T14:15:59.566Z,28.22
2024-04-08T14:16:25.135Z,28.25
2024-04-08T14:16:47.081Z,28.24
2024-04-08T14:17:11.717Z,28.29
2024-04-08T14:17:34.255Z,28.30
2024-04-08T14:17:56.224Z,28.29
2024-04-08T14:18:18.738Z,28.27
2024-04-08T14:18:43.323Z,28.26
2024-04-08T14:19:05.206Z,28.30
2024-04-08T14:19:27.070Z,28.33
2024-04-08T14:19:48.896Z,28.32
2024-04-08T14:20:11.076Z,28.37
2024-04-08T14:20:32.834Z,28.37
2024-04-08T14:20:57.308Z,28.34
2024-04-08T14:21:19.224Z,28.39
2024-04-08T14:21:41.043Z,28.42
2024-04-08T14:22:02.831Z,28.44
2024-04-08T14:22:24.685Z,28.47
2024-04-08T14:22:47.415Z,28.49
2024-04-08T14:23:09.360Z,28.50
2024-04-08T14:23:31.451Z,28.52
2024-04-08T14:23:53.270Z,28.51
2024-04-08T14:24:18.580Z,28.52
2024-04-08T14:24:40.441Z,28.50
2024-04-08T14:25:02.322Z,28.53
2024-04-08T14:25:24.156Z,28.55
2024-04-08T14:25:45.953Z,28.58
2024-04-08T14:26:07.723Z,28.56
2024-04-08T14:26:29.500Z,28.56
2024-04-08T14:26:51.352Z,28.58
2024-04-08T14:27:13.270Z,28.60
2024-04-08T14:27:35.067Z,28.63
2024-04-08T14:27:57.145Z,28.69
2024-04-08T14:28:21.590Z,28.78
2024-04-08T14:28:45.605Z,28.94
2024-04-08T14:29:08.536Z,29.15
2024-04-08T14:29:33.773Z,29.32
2024-04-08T14:30:00.601Z,29.48
2024-04-08T14:30:23.227Z,29.70
2024-04-08T14:30:45.214Z,29.74
2024-04-08T14:31:07.142Z,29.91
2024-04-08T14:31:31.509Z,30.06
2024-04-08T14:31:53.312Z,30.30
2024-04-08T14:32:15.103Z,30.51
2024-04-08T14:32:36.951Z,30.75
2024-04-08T14:32:59.210Z,30.99
2024-04-08T14:33:21.166Z,31.22
2024-04-08T14:33:45.787Z,31.39
2024-04-08T14:34:08.824Z,31.61
2024-04-08T14:34:30.851Z,31.83
2024-04-08T14:34:52.785Z,32.02
2024-04-08T14:35:14.774Z,32.24
2024-04-08T14:35:39.144Z,32.41
2024-04-08T14:36:01.027Z,32.57
2024-04-08T14:36:25.246Z,32.65
2024-04-08T14:36:49.221Z,32.65
2024-04-08T14:37:11.015Z,32.69
2024-04-08T14:37:50.810Z,32.81
2024-04-08T14:38:38.775Z,33.07
2024-04-08T14:39:21.780Z,33.33
2024-04-08T14:39:40.865Z,33.55
2024-04-08T14:40:03.510Z,33.73
2024-04-08T14:40:25.802Z,33.89
2024-04-08T14:40:47.620Z,34.02
2024-04-08T14:41:09.702Z,34.16
2024-04-08T14:41:31.567Z,34.27
2024-04-08T14:41:55.937Z,34.37
2024-04-08T14:42:17.799Z,34.42
2024-04-08T14:42:39.590Z,34.54
2024-04-08T14:43:02.926Z,34.54
2024-04-08T14:43:30.285Z,34.72
2024-04-08T14:44:04.112Z,34.71
2024-04-08T14:44:40.494Z,34.61
2024-04-08T14:45:07.850Z,34.85
2024-04-08T14:45:32.482Z,34.97
2024-04-08T14:45:55.246Z,35.12
2024-04-08T14:46:17.269Z,35.24
2024-04-08T14:46:39.205Z,35.37
2024-04-08T14:47:01.330Z,35.44
2024-04-08T14:47:23.239Z,35.37
2024-04-08T14:47:45.066Z,35.37
2024-04-08T14:48:08.214Z,35.45
2024-04-08T14:48:32.699Z,35.57
2024-04-08T14:48:57.590Z,35.69
2024-04-08T14:49:19.480Z,35.51
2024-04-08T14:49:42.910Z,35.42
2024-04-08T14:50:05.442Z,35.54
2024-04-08T14:50:27.599Z,35.57
2024-04-08T14:50:49.387Z,35.35
2024-04-08T14:51:11.453Z,35.42
2024-04-08T14:51:39.044Z,35.50
2024-04-08T14:52:10.314Z,35.66
2024-04-08T14:52:39.856Z,35.84
2024-04-08T14:53:03.647Z,35.99
2024-04-08T14:53:26.132Z,36.10
2024-04-08T14:53:48.176Z,36.19
2024-04-08T14:54:10.667Z,36.25
2024-04-08T14:54:32.780Z,36.37
2024-04-08T14:54:54.983Z,36.41
2024-04-08T14:55:19.672Z,36.33
2024-04-08T14:55:44.973Z,36.22
2024-04-08T14:56:07.734Z,36.17
2024-04-08T14:56:29.812Z,35.99
2024-04-08T14:56:51.845Z,35.87
2024-04-08T14:57:14.183Z,35.89
2024-04-08T14:57:36.150Z,36.05
2024-04-08T14:57:58.016Z,36.10
2024-04-08T14:58:19.773Z,36.26
2024-04-08T14:58:45.641Z,36.33
2024-04-08T14:59:08.440Z,36.46
2024-04-08T14:59:30.250Z,36.51
2024-04-08T14:59:54.856Z,36.60
2024-04-08T15:00:17.015Z,36.66
2024-04-08T15:00:39.014Z,36.68
2024-04-08T15:01:00.908Z,36.48
2024-04-08T15:01:23.573Z,36.48
2024-04-08T15:01:45.403Z,36.48
2024-04-08T15:02:07.363Z,36.42
2024-04-08T15:02:29.295Z,36.41
2024-04-08T15:02:51.296Z,36.35
2024-04-08T15:03:13.442Z,36.44
2024-04-08T15:03:35.371Z,36.17
2024-04-08T15:04:02.654Z,35.67
2024-04-08T15:04:24.589Z,35.90
2024-04-08T15:04:47.239Z,36.00
2024-04-08T15:05:11.655Z,36.09
2024-04-08T15:05:33.618Z,36.08
2024-04-08T15:05:55.548Z,36.22
2024-04-08T15:06:17.413Z,36.29
2024-04-08T15:06:39.183Z,36.42
2024-04-08T15:07:00.923Z,36.48
2024-04-08T15:07:28.470Z,36.56
2024-04-08T15:07:50.838Z,36.65
2024-04-08T15:08:13.889Z,36.70
2024-04-08T15:08:37.163Z,36.72
2024-04-08T15:08:58.963Z,36.75
2024-04-08T15:09:21.086Z,36.81
2024-04-08T15:09:42.965Z,36.83
2024-04-08T15:10:05.410Z,36.85
2024-04-08T15:10:27.263Z,36.71
2024-04-08T15:10:58.395Z,36.72
2024-04-08T15:11:25.716Z,36.80
2024-04-08T15:11:47.937Z,36.82
2024-04-08T15:12:09.999Z,36.78
2024-04-08T15:12:32.088Z,36.74
2024-04-08T15:12:55.668Z,36.78
2024-04-08T15:13:17.461Z,36.85
2024-04-08T15:13:39.207Z,36.90
2024-04-08T15:14:01.010Z,36.89
2024-04-08T15:14:22.794Z,36.90
2024-04-08T15:14:45.133Z,36.92
2024-04-08T15:15:07.315Z,36.90
2024-04-08T15:15:31.874Z,36.91
2024-04-08T15:15:53.704Z,36.90
2024-04-08T15:16:15.475Z,36.84
2024-04-08T15:16:37.322Z,36.84
2024-04-08T15:16:59.165Z,36.79
2024-04-08T15:17:22.977Z,36.74
2024-04-08T15:17:45.989Z,36.74
2024-04-08T15:18:08.042Z,36.34
2024-04-08T15:18:32.614Z,36.26
2024-04-08T15:18:54.611Z,36.01
2024-04-08T15:19:19.046Z,35.73
2024-04-08T15:19:41.302Z,35.71
2024-04-08T15:20:03.234Z,35.72
2024-04-08T15:20:25.199Z,35.65
2024-04-08T15:20:47.329Z,35.60
2024-04-08T15:21:09.408Z,35.54
2024-04-08T15:21:33.897Z,35.51
2024-04-08T15:21:55.795Z,35.59
2024-04-08T15:22:17.624Z,35.51
2024-04-08T15:22:39.417Z,35.51
2024-04-08T15:23:01.158Z,35.38
2024-04-08T15:23:23.515Z,35.33
2024-04-08T15:23:45.302Z,35.03
2024-04-08T15:24:10.021Z,35.10
2024-04-08T15:24:31.947Z,35.23
2024-04-08T15:24:53.796Z,35.23
2024-04-08T15:25:18.727Z,35.26
2024-04-08T15:25:40.976Z,35.31
2024-04-08T15:26:03.527Z,35.08
2024-04-08T15:26:25.538Z,34.76
2024-04-08T15:26:47.663Z,34.60
2024-04-08T15:27:09.509Z,34.24
2024-04-08T15:27:33.069Z,34.32
2024-04-08T15:27:54.844Z,34.44
2024-04-08T15:28:16.626Z,34.50
2024-04-08T15:28:38.528Z,34.44
2024-04-08T15:29:00.274Z,34.45
2024-04-08T15:29:24.616Z,34.42
2024-04-08T15:29:51.185Z,34.42
2024-04-08T15:30:14.982Z,34.38
2024-04-08T15:30:36.879Z,34.36
2024-04-08T15:30:59.617Z,34.32
2024-04-08T15:31:21.454Z,34.20
2024-04-08T15:31:43.465Z,34.11
2024-04-08T15:32:06.067Z,34.06
2024-04-08T15:32:28.496Z,34.00
2024-04-08T15:32:53.042Z,33.88
2024-04-08T15:33:15.375Z,33.82
2024-04-08T15:33:37.853Z,33.78
2024-04-08T15:34:00.104Z,33.74
2024-04-08T15:34:24.788Z,33.68
2024-04-08T15:34:48.767Z,33.62
2024-04-08T15:35:12.685Z,33.61
2024-04-08T15:35:36.156Z,33.58
2024-04-08T15:35:58.179Z,33.55
2024-04-08T15:36:22.652Z,33.44
2024-04-08T15:36:44.523Z,33.32
2024-04-08T15:37:06.352Z,33.25
2024-04-08T15:37:28.144Z,33.23
2024-04-08T15:37:49.933Z,33.17
2024-04-08T15:38:11.714Z,33.14
2024-04-08T15:38:33.529Z,33.04
2024-04-08T15:38:55.290Z,33.05
2024-04-08T15:39:17.143Z,32.95
2024-04-08T15:39:38.984Z,32.92
2024-04-08T15:40:05.308Z,32.88
2024-04-08T15:40:27.438Z,32.79
2024-04-08T15:40:53.229Z,32.66
2024-04-08T15:41:15.003Z,32.49
2024-04-08T15:41:36.732Z,32.37
2024-04-08T15:41:58.537Z,32.35
2024-04-08T15:42:20.408Z,32.33
2024-04-08T15:42:42.192Z,32.32
2024-04-08T15:43:04.064Z,32.31
2024-04-08T15:43:26.899Z,32.29
2024-04-08T15:43:48.690Z,32.31
2024-04-08T15:44:10.422Z,32.27
2024-04-08T15:44:32.332Z,32.28
2024-04-08T15:44:57.724Z,32.25
2024-04-08T15:45:20.320Z,32.20
2024-04-08T15:45:42.167Z,32.10
2024-04-08T15:46:05.554Z,32.12
2024-04-08T15:46:31.595Z,32.09
2024-04-08T15:46:53.803Z,32.07
2024-04-08T15:47:15.844Z,32.05
2024-04-08T15:47:37.754Z,31.99
2024-04-08T15:47:59.724Z,31.96
2024-04-08T15:48:21.896Z,31.92
2024-04-08T15:48:46.467Z,31.71
2024-04-08T15:49:08.853Z,31.68
2024-04-08T15:49:33.476Z,31.64
2024-04-08T15:49:55.415Z,31.63
2024-04-08T15:50:17.355Z,31.30
2024-04-08T15:50:39.138Z,31.21
2024-04-08T15:51:03.767Z,31.29
2024-04-08T15:51:25.710Z,31.34
2024-04-08T15:51:52.028Z,31.40
2024-04-08T15:52:13.778Z,31.44
2024-04-08T15:52:35.630Z,31.44
2024-04-08T15:52:58.887Z,31.42
2024-04-08T15:53:20.943Z,31.40
2024-04-08T15:53:44.415Z,31.42
2024-04-08T15:54:08.134Z,31.42
2024-04-08T15:54:30.064Z,31.44
2024-04-08T15:54:53.530Z,31.44
2024-04-08T15:55:17.842Z,31.41
2024-04-08T15:55:40.821Z,31.38
2024-04-08T15:56:05.527Z,31.28
2024-04-08T15:56:27.429Z,31.01
2024-04-08T15:56:49.332Z,30.78
2024-04-08T15:57:11.203Z,30.71
2024-04-08T15:57:33.129Z,30.53
2024-04-08T15:57:56.763Z,30.61
2024-04-08T15:58:18.541Z,30.40
2024-04-08T15:58:42.951Z,30.40
2024-04-08T15:59:04.697Z,30.41
2024-04-08T15:59:27.020Z,30.35
2024-04-08T15:59:50.155Z,30.37
2024-04-08T16:00:13.274Z,30.41
2024-04-08T16:00:35.230Z,30.28
2024-04-08T16:00:57.442Z,30.33
2024-04-08T16:01:20.799Z,30.40
2024-04-08T16:01:42.553Z,30.41
2024-04-08T16:02:07.175Z,30.52
2024-04-08T16:02:28.998Z,30.58
2024-04-08T16:02:51.104Z,30.62
2024-04-08T16:03:14.213Z,30.67
2024-04-08T16:03:36.265Z,30.70
2024-04-08T16:03:58.456Z,30.69
2024-04-08T16:04:20.759Z,30.66
2024-04-08T16:04:48.999Z,30.68
2024-04-08T16:05:11.168Z,30.72
2024-04-08T16:05:33.231Z,30.71
2024-04-08T16:06:11.257Z,30.77
2024-04-08T16:06:37.180Z,30.80
2024-04-08T16:06:59.043Z,30.83
2024-04-08T16:07:20.822Z,30.85
2024-04-08T16:07:42.831Z,30.82
2024-04-08T16:08:05.130Z,30.41
2024-04-08T16:08:26.950Z,30.08
2024-04-08T16:08:48.853Z,29.98
2024-04-08T16:09:10.693Z,30.09
2024-04-08T16:09:33.060Z,30.18
2024-04-08T16:09:57.497Z,30.22
2024-04-08T16:10:19.897Z,30.13
2024-04-08T16:10:43.242Z,30.19
2024-04-08T16:11:06.152Z,30.08
2024-04-08T16:11:27.936Z,30.09
2024-04-08T16:11:49.892Z,30.12
2024-04-08T16:12:11.850Z,30.15
2024-04-08T16:12:37.032Z,30.20
2024-04-08T16:12:58.799Z,30.27
2024-04-08T16:13:20.636Z,30.28
2024-04-08T16:13:42.428Z,30.28
2024-04-08T16:14:04.853Z,30.18
2024-04-08T16:14:26.600Z,30.15
2024-04-08T16:14:48.421Z,30.23
2024-04-08T16:15:10.297Z,30.22
2024-04-08T16:15:33.336Z,30.24
2024-04-08T16:15:57.994Z,30.23
2024-04-08T16:16:19.911Z,30.12
2024-04-08T16:16:41.793Z,30.18
2024-04-08T16:17:04.813Z,29.93
2024-04-08T16:17:26.627Z,29.97
2024-04-08T16:17:48.531Z,30.01
2024-04-08T16:18:10.396Z,30.12
2024-04-08T16:18:32.924Z,30.16
2024-04-08T16:18:57.484Z,30.18
2024-04-08T16:19:19.445Z,30.21
2024-04-08T16:19:41.247Z,30.22
2024-04-08T16:20:07.193Z,30.21
2024-04-08T16:20:29.412Z,30.26
2024-04-08T16:20:57.939Z,30.21
2024-04-08T16:21:46.843Z,30.25
2024-04-08T16:22:08.598Z,30.28
2024-04-08T16:22:37.210Z,30.32
2024-04-08T16:23:21.949Z,30.30
2024-04-08T16:23:55.644Z,30.34
2024-04-08T16:24:18.578Z,30.37
2024-04-08T16:24:40.463Z,30.37
2024-04-08T16:25:02.333Z,30.30
2024-04-08T16:25:24.085Z,30.06
2024-04-08T16:25:53.342Z,30.07
2024-04-08T16:26:15.138Z,30.14
2024-04-08T16:26:39.520Z,30.16
2024-04-08T16:27:01.289Z,30.21
2024-04-08T16:27:23.139Z,30.16
2024-04-08T16:27:45.303Z,30.07
2024-04-08T16:28:07.279Z,30.07
2024-04-08T16:28:29.908Z,30.04
2024-04-08T16:28:58.203Z,30.08
2024-04-08T16:29:23.275Z,30.12
2024-04-08T16:29:46.636Z,30.15
2024-04-08T16:30:09.454Z,30.16
2024-04-08T16:30:33.983Z,30.20
2024-04-08T16:30:56.796Z,30.21
2024-04-08T16:31:18.561Z,30.22
2024-04-08T16:31:40.391Z,30.23
2024-04-08T16:32:02.142Z,30.23
2024-04-08T16:32:24.782Z,30.25
2024-04-08T16:32:46.666Z,30.26
2024-04-08T16:33:08.588Z,30.28
2024-04-08T16:33:32.185Z,30.27
2024-04-08T16:33:58.668Z,30.30
2024-04-08T16:34:20.719Z,30.29
2024-04-08T16:34:44.611Z,30.29
2024-04-08T16:35:09.085Z,30.28
2024-04-08T16:35:30.836Z,30.27
2024-04-08T16:35:52.888Z,30.26
2024-04-08T16:36:14.866Z,30.27
2024-04-08T16:36:36.857Z,30.29
2024-04-08T16:36:58.701Z,30.28
2024-04-08T16:37:20.501Z,30.26
2024-04-08T16:37:44.881Z,30.28
2024-04-08T16:38:06.612Z,30.26
2024-04-08T16:38:28.654Z,30.22
2024-04-08T16:38:50.568Z,30.24
2024-04-08T16:39:14.105Z,30.26
2024-04-08T16:39:36.196Z,30.25
2024-04-08T16:39:58.043Z,30.24
2024-04-08T16:40:19.846Z,30.23
2024-04-08T16:40:43.335Z,30.22
2024-04-08T16:41:08.209Z,30.21
2024-04-08T16:41:30.279Z,30.20
2024-04-08T16:41:52.072Z,30.23
2024-04-08T16:42:13.860Z,30.25
2024-04-08T16:42:35.663Z,30.25
2024-04-08T16:42:58.752Z,30.26
2024-04-08T16:43:21.427Z,30.27
2024-04-08T16:43:44.990Z,30.28
2024-04-08T16:44:08.136Z,30.29
2024-04-08T16:44:30.163Z,30.29
2024-04-08T16:44:54.543Z,30.25
2024-04-08T16:45:16.403Z,30.28
2024-04-08T16:45:38.338Z,30.24
2024-04-08T16:46:00.446Z,30.24
2024-04-08T16:46:25.984Z,30.26
2024-04-08T16:46:48.049Z,30.27
2024-04-08T16:47:09.899Z,30.27
2024-04-08T16:47:31.852Z,30.26
2024-04-08T16:47:53.824Z,30.27
2024-04-08T16:48:15.743Z,30.27
2024-04-08T16:48:40.519Z,30.25
2024-04-08T16:49:02.644Z,30.25
2024-04-08T16:49:25.623Z,30.25
2024-04-08T16:49:47.400Z,30.22
2024-04-08T16:50:11.801Z,30.21
2024-04-08T16:50:33.625Z,30.23
2024-04-08T16:50:57.028Z,30.19
2024-04-08T16:51:21.202Z,30.22
2024-04-08T16:51:45.581Z,30.19
2024-04-08T16:52:07.405Z,30.17
2024-04-08T16:52:29.174Z,30.14
2024-04-08T16:52:50.970Z,30.12
2024-04-08T16:53:12.719Z,30.11
2024-04-08T16:53:34.567Z,30.09
2024-04-08T16:53:56.398Z,30.08
2024-04-08T16:54:18.278Z,30.09
2024-04-08T16:54:42.360Z,30.04
2024-04-08T16:55:05.037Z,30.05
2024-04-08T16:55:26.787Z,29.98
2024-04-08T16:55:55.396Z,30.07
2024-04-08T16:56:19.814Z,30.07
2024-04-08T16:56:41.585Z,30.03
2024-04-08T16:57:03.854Z,29.99
2024-04-08T16:57:25.717Z,30.00
2024-04-08T16:57:47.476Z,30.00
2024-04-08T16:58:09.243Z,30.01
2024-04-08T16:58:31.372Z,29.99
2024-04-08T16:58:54.027Z,29.98
2024-04-08T16:59:17.347Z,29.96
2024-04-08T16:59:41.670Z,29.98
2024-04-08T17:00:04.142Z,29.99
2024-04-08T17:00:26.151Z,30.02
2024-04-08T17:00:48.067Z,29.99
2024-04-08T17:01:09.908Z,30.00
2024-04-08T17:01:31.726Z,30.00
2024-04-08T17:01:53.486Z,29.97
2024-04-08T17:02:15.294Z,29.92
2024-04-08T17:02:37.180Z,29.95
2024-04-08T17:02:59.555Z,29.94
2024-04-08T17:03:28.310Z,29.95
2024-04-08T17:03:50.398Z,30.00
2024-04-08T17:04:12.971Z,29.99
2024-04-08T17:04:36.742Z,29.92
2024-04-08T17:04:58.677Z,29.66
2024-04-08T17:05:23.131Z,29.61
2024-04-08T17:05:45.172Z,29.61
2024-04-08T17:06:09.621Z,29.66
2024-04-08T17:06:37.346Z,29.64
2024-04-08T17:07:01.827Z,29.70
2024-04-08T17:07:23.558Z,29.73
2024-04-08T17:07:46.818Z,29.76
2024-04-08T17:08:08.575Z,29.78
2024-04-08T17:08:30.518Z,29.81
2024-04-08T17:08:52.880Z,29.85
2024-04-08T17:09:14.729Z,29.84
2024-04-08T17:09:36.613Z,29.88
2024-04-08T17:10:01.993Z,29.87
2024-04-08T17:10:23.822Z,29.83
2024-04-08T17:10:45.635Z,29.83
2024-04-08T17:11:07.630Z,29.87
2024-04-08T17:11:29.522Z,29.88
2024-04-08T17:11:51.730Z,29.89
2024-04-08T17:12:13.546Z,29.90
2024-04-08T17:12:38.077Z,29.92
2024-04-08T17:12:59.923Z,29.92
2024-04-08T17:13:21.658Z,29.92
2024-04-08T17:13:45.972Z,29.92
2024-04-08T17:14:07.900Z,29.91
2024-04-08T17:14:29.646Z,29.91
2024-04-08T17:14:51.494Z,29.94
2024-04-08T17:15:13.450Z,29.92
2024-04-08T17:15:35.366Z,29.90
2024-04-08T17:15:57.228Z,29.89
2024-04-08T17:16:19.032Z,29.90
2024-04-08T17:16:40.810Z,29.90
2024-04-08T17:17:02.708Z,29.90
2024-04-08T17:17:27.160Z,29.89
2024-04-08T17:17:49.126Z,29.89
2024-04-08T17:18:12.206Z,29.89
2024-04-08T17:18:34.175Z,29.84
2024-04-08T17:18:56.111Z,29.87
2024-04-08T17:19:17.894Z,29.83
2024-04-08T17:19:39.654Z,29.84
2024-04-08T17:20:01.415Z,29.84
2024-04-08T17:20:25.789Z,29.82
2024-04-08T17:20:50.108Z,29.81
2024-04-08T17:21:12.019Z,29.81
2024-04-08T17:21:36.718Z,29.78
2024-04-08T17:21:59.931Z,29.81
2024-04-08T17:22:21.794Z,29.82
2024-04-08T17:22:44.117Z,29.84
2024-04-08T17:23:06.111Z,29.78
2024-04-08T17:23:27.864Z,29.75
2024-04-08T17:23:50.466Z,29.78
2024-04-08T17:24:12.305Z,29.77
2024-04-08T17:24:34.336Z,29.75
2024-04-08T17:24:56.203Z,29.73
2024-04-08T17:25:20.873Z,29.72
2024-04-08T17:25:42.632Z,29.71
2024-04-08T17:26:06.592Z,29.72
2024-04-08T17:26:28.366Z,29.72
2024-04-08T17:26:51.133Z,29.72
2024-04-08T17:27:13.059Z,29.72
2024-04-08T17:27:34.866Z,29.70
2024-04-08T17:27:56.748Z,29.71
2024-04-08T17:28:18.537Z,29.70
2024-04-08T17:28:42.911Z,29.68
2024-04-08T17:29:04.864Z,29.70
2024-04-08T17:29:27.016Z,29.71
2024-04-08T17:29:48.864Z,29.71
2024-04-08T17:30:12.033Z,29.69
2024-04-08T17:30:34.306Z,29.65
2024-04-08T17:30:56.739Z,29.66
2024-04-08T17:31:18.517Z,29.65
2024-04-08T17:31:40.309Z,29.63
2024-04-08T17:32:04.723Z,29.60
2024-04-08T17:32:26.737Z,29.62
2024-04-08T17:32:48.647Z,29.63
2024-04-08T17:33:10.705Z,29.61
2024-04-08T17:33:34.075Z,29.61
2024-04-08T17:33:56.213Z,29.61
2024-04-08T17:34:18.185Z,29.63
2024-04-08T17:34:40.061Z,29.63
2024-04-08T17:35:01.851Z,29.62
2024-04-08T17:35:28.826Z,29.62
2024-04-08T17:35:54.978Z,29.61
2024-04-08T17:36:16.828Z,29.60
2024-04-08T17:36:38.765Z,29.62
2024-04-08T17:37:00.637Z,29.61
2024-04-08T17:37:24.674Z,29.61
2024-04-08T17:37:47.029Z,29.60
2024-04-08T17:38:08.823Z,29.58
2024-04-08T17:38:31.589Z,29.57
2024-04-08T17:38:55.072Z,29.56
2024-04-08T17:39:19.196Z,29.56
2024-04-08T17:39:44.234Z,29.53
2024-04-08T17:40:07.385Z,29.53
2024-04-08T17:40:29.151Z,29.53
2024-04-08T17:41:01.554Z,29.48
2024-04-08T17:41:25.791Z,29.48
2024-04-08T17:41:48.541Z,29.46
2024-04-08T17:42:10.825Z,29.44
2024-04-08T17:42:39.680Z,29.41
2024-04-08T17:43:06.409Z,29.41
2024-04-08T17:43:32.466Z,29.40
2024-04-08T17:43:55.720Z,29.36
2024-04-08T17:44:20.232Z,29.37
2024-04-08T17:44:42.012Z,29.32
2024-04-08T17:45:04.423Z,29.29
2024-04-08T17:45:26.445Z,29.31
2024-04-08T17:45:48.337Z,29.31
2024-04-08T17:46:10.939Z,29.30
2024-04-08T17:46:35.223Z,29.28
2024-04-08T17:46:59.839Z,29.30
2024-04-08T17:47:21.595Z,29.29
2024-04-08T17:47:43.509Z,29.30
2024-04-08T17:48:06.296Z,29.28
2024-04-08T17:48:29.351Z,29.29
2024-04-08T17:48:51.847Z,29.26
2024-04-08T17:49:13.799Z,29.31
2024-04-08T17:49:36.423Z,29.31
2024-04-08T17:49:58.443Z,29.30
2024-04-08T17:50:20.897Z,29.30
2024-04-08T17:50:56.282Z,29.29
2024-04-08T17:51:18.207Z,29.29
2024-04-08T17:51:40.091Z,29.27
2024-04-08T17:52:02.000Z,29.26
2024-04-08T17:52:24.082Z,29.26
2024-04-08T17:52:45.903Z,29.25
2024-04-08T17:53:07.653Z,29.23
2024-04-08T17:53:30.350Z,29.22
2024-04-08T17:53:52.460Z,29.21
2024-04-08T17:54:17.781Z,29.22
2024-04-08T17:54:39.688Z,29.20
2024-04-08T17:55:01.533Z,29.18
2024-04-08T17:55:23.328Z,29.21
2024-04-08T17:55:45.078Z,29.17
2024-04-08T17:56:09.749Z,29.18
2024-04-08T17:56:33.616Z,29.12
2024-04-08T17:56:55.720Z,29.13
2024-04-08T17:57:17.507Z,29.13
2024-04-08T17:57:41.986Z,29.13
2024-04-08T17:58:04.110Z,29.11
2024-04-08T17:58:26.036Z,29.12
2024-04-08T17:58:48.509Z,29.06
2024-04-08T17:59:10.280Z,29.10
2024-04-08T17:59:32.036Z,29.10
2024-04-08T17:59:55.994Z,29.10
2024-04-08T18:00:18.217Z,29.10
2024-04-08T18:00:40.440Z,29.09
2024-04-08T18:01:04.734Z,29.07
2024-04-08T18:01:29.192Z,29.08
2024-04-08T18:01:51.125Z,29.05
2024-04-08T18:02:12.987Z,29.04
2024-04-08T18:02:34.819Z,29.00
2024-04-08T18:02:57.912Z,29.04
2024-04-08T18:03:20.052Z,29.03
2024-04-08T18:03:43.271Z,29.02
2024-04-08T18:04:06.161Z,29.01
2024-04-08T18:04:28.148Z,29.01
2024-04-08T18:04:53.499Z,28.97
2024-04-08T18:05:15.486Z,29.00
2024-04-08T18:05:37.221Z,28.98
2024-04-08T18:06:09.710Z,28.96
2024-04-08T18:06:31.648Z,28.94
2024-04-08T18:06:53.485Z,28.92
2024-04-08T18:07:15.227Z,28.92
2024-04-08T18:07:37.070Z,28.90
2024-04-08T18:07:58.917Z,28.88
2024-04-08T18:08:23.327Z,28.86
2024-04-08T18:08:46.213Z,28.85
2024-04-08T18:09:08.273Z,28.85
2024-04-08T18:09:30.666Z,28.82
2024-04-08T18:09:54.159Z,28.81
2024-04-08T18:10:16.747Z,28.82
2024-04-08T18:10:41.349Z,28.80
2024-04-08T18:11:04.256Z,28.79
2024-04-08T18:11:26.672Z,28.79
2024-04-08T18:11:56.720Z,28.78
2024-04-08T18:12:21.221Z,28.75
2024-04-08T18:12:43.042Z,28.74
2024-04-08T18:13:05.003Z,28.70
2024-04-08T18:13:26.856Z,28.71
2024-04-08T18:13:48.717Z,28.70
2024-04-08T18:14:10.668Z,28.68
2024-04-08T18:14:35.022Z,28.67
2024-04-08T18:14:56.875Z,28.64
2024-04-08T18:15:21.344Z,28.65
2024-04-08T18:15:43.135Z,28.65
2024-04-08T18:16:05.778Z,28.64
2024-04-08T18:16:32.833Z,28.63
2024-04-08T18:16:55.217Z,28.62
2024-04-08T18:17:21.683Z,28.62
2024-04-08T18:17:43.968Z,28.61
2024-04-08T18:18:06.165Z,28.59
2024-04-08T18:18:31.051Z,28.55
2024-04-08T18:18:53.537Z,28.51
2024-04-08T18:19:15.555Z,28.52
2024-04-08T18:19:38.195Z,28.51
2024-04-08T18:20:00.114Z,28.50
2024-04-08T18:20:21.949Z,28.50
2024-04-08T18:20:43.698Z,28.47
2024-04-08T18:21:11.551Z,28.43
2024-04-08T18:21:37.107Z,28.41
2024-04-08T18:21:58.996Z,28.40
2024-04-08T18:22:20.736Z,28.37
2024-04-08T18:22:42.610Z,28.36
2024-04-08T18:23:04.554Z,28.37
2024-04-08T18:23:26.332Z,28.36
2024-04-08T18:23:49.548Z,28.34
2024-04-08T18:24:11.669Z,28.31
2024-04-08T18:24:39.432Z,28.29
2024-04-08T18:25:01.742Z,28.27
2024-04-08T18:25:23.556Z,28.28
2024-04-08T18:25:54.736Z,28.27
2024-04-08T18:26:18.439Z,28.26
2024-04-08T18:26:40.285Z,28.23
2024-04-08T18:27:02.200Z,28.19
2024-04-08T18:27:24.083Z,28.16
2024-04-08T18:27:45.855Z,28.13
2024-04-08T18:28:07.574Z,28.10
2024-04-08T18:28:35.143Z,28.08
2024-04-08T18:28:57.270Z,28.05
2024-04-08T18:29:19.095Z,28.02
2024-04-08T18:29:41.201Z,27.97
2024-04-08T18:30:05.191Z,27.97
2024-04-08T18:30:29.762Z,27.88
2024-04-08T18:31:02.932Z,27.91
2024-04-08T18:31:24.817Z,27.90
2024-04-08T18:31:49.332Z,27.86
2024-04-08T18:32:11.705Z,27.88
2024-04-08T18:32:33.654Z,27.84
2024-04-08T18:32:55.599Z,27.83
2024-04-08T18:33:17.585Z,27.81
2024-04-08T18:33:41.865Z,27.77
2024-04-08T18:34:03.974Z,27.80
2024-04-08T18:34:25.849Z,27.78
2024-04-08T18:34:49.636Z,27.75
2024-04-08T18:35:11.450Z,27.72
2024-04-08T18:35:33.213Z,27.71
2024-04-08T18:35:55.182Z,27.69
2024-04-08T18:36:22.721Z,27.66
2024-04-08T18:36:45.842Z,27.66
2024-04-08T18:37:07.746Z,27.66
2024-04-08T18:37:29.588Z,27.65
2024-04-08T18:37:51.373Z,27.64
2024-04-08T18:38:13.743Z,27.63
2024-04-08T18:38:35.731Z,27.60
2024-04-08T18:38:57.518Z,27.59
2024-04-08T18:39:21.904Z,27.59
2024-04-08T18:39:44.693Z,27.57
2024-04-08T18:40:07.871Z,27.57
2024-04-08T18:40:29.644Z,27.54
2024-04-08T18:40:52.721Z,27.49
2024-04-08T18:41:15.119Z,27.47
2024-04-08T18:41:36.950Z,27.46
2024-04-08T18:41:58.719Z,27.47
2024-04-08T18:42:22.893Z,27.47
2024-04-08T18:42:44.883Z,27.45
2024-04-08T18:43:07.107Z,27.45
2024-04-08T18:43:31.485Z,27.45
2024-04-08T18:43:53.228Z,27.46
2024-04-08T18:44:15.025Z,27.45
2024-04-08T18:44:37.053Z,27.44
2024-04-08T18:44:58.774Z,27.43
2024-04-08T18:45:20.673Z,27.39
2024-04-08T18:45:42.449Z,27.41
2024-04-08T18:46:05.587Z,27.41
2024-04-08T18:46:27.362Z,27.40
2024-04-08T18:46:49.107Z,27.40
2024-04-08T18:47:13.446Z,27.36
2024-04-08T18:47:35.204Z,27.36
2024-04-08T18:47:57.219Z,27.37
2024-04-08T18:48:19.082Z,27.35
2024-04-08T18:48:41.089Z,27.32
2024-04-08T18:49:03.181Z,27.34
2024-04-08T18:49:25.400Z,27.34
2024-04-08T18:49:47.458Z,27.33
2024-04-08T18:50:09.303Z,27.31
2024-04-08T18:50:31.113Z,27.31
2024-04-08T18:50:55.523Z,27.30
2024-04-08T18:51:20.056Z,27.30
2024-04-08T18:51:42.454Z,27.30
2024-04-08T18:52:04.761Z,27.29
2024-04-08T18:52:26.720Z,27.28
2024-04-08T18:52:48.464Z,27.29
2024-04-08T18:53:10.246Z,27.26
2024-04-08T18:53:31.994Z,27.25
2024-04-08T18:53:56.499Z,27.27
2024-04-08T18:54:21.663Z,27.24
2024-04-08T18:54:44.413Z,27.25
2024-04-08T18:55:06.986Z,27.26
2024-04-08T18:55:28.742Z,27.24
2024-04-08T18:55:50.603Z,27.26
2024-04-08T18:56:12.444Z,27.27
2024-04-08T18:56:34.253Z,27.28
2024-04-08T18:56:56.112Z,27.26
2024-04-08T18:57:17.983Z,27.28
2024-04-08T18:57:39.829Z,27.25
2024-04-08T18:58:04.238Z,27.25
2024-04-08T18:58:26.123Z,27.26
2024-04-08T18:58:47.869Z,27.23
2024-04-08T18:59:09.648Z,27.22
2024-04-08T18:59:31.705Z,27.21
2024-04-08T18:59:53.527Z,27.20
2024-04-08T19:00:15.782Z,27.19